createdAt,value
2022-10-27T00:00:46.161Z,98875.09
2022-10-27T00:03:16.009Z,98879.47
2022-10-27T00:05:44.825Z,98877.72
2022-10-27T00:08:22.701Z,98881.66
2022-10-27T00:11:02.108Z,98895.50
2022-10-27T00:13:29.785Z,98892.78
2022-10-27T00:15:58.060Z,98886.31
2022-10-27T00:18:24.742Z,98892.63
2022-10-27T00:21:04.417Z,98890.22
2022-10-27T00:23:31.651Z,98897.53
2022-10-27T00:25:59.768Z,98899.94
2022-10-27T00:28:27.408Z,98897.44
2022-10-27T00:31:07.392Z,98900.69
2022-10-27T00:33:34.919Z,98906.59
2022-10-27T00:36:17.312Z,98914.34
2022-10-27T00:38:44.471Z,98917.16
2022-10-27T00:41:38.997Z,98913.63
2022-10-27T00:44:42.960Z,98914.28
2022-10-27T00:47:09.522Z,98920.66
2022-10-27T00:49:42.213Z,98912.28
2022-10-27T00:52:42.167Z,98915.53
2022-10-27T00:55:21.248Z,98915.97
2022-10-27T00:57:52.867Z,98915.31
2022-10-27T01:00:20.025Z,98919.28
2022-10-27T01:02:47.505Z,98923.69
2022-10-27T01:05:20.412Z,98931.44
2022-10-27T01:07:49.276Z,98919.13
2022-10-27T01:10:17.198Z,98932.53
2022-10-27T01:12:44.973Z,98936.16
2022-10-27T01:15:12.070Z,98928.38
2022-10-27T01:18:20.691Z,98927.13
2022-10-27T01:21:24.967Z,98933.72
2022-10-27T01:23:57.379Z,98937.16
2022-10-27T01:26:32.960Z,98938.06
2022-10-27T01:29:21.274Z,98934.94
2022-10-27T01:31:51.370Z,98939.44
2022-10-27T01:34:57.749Z,98933.41
2022-10-27T01:37:39.965Z,98937.38
2022-10-27T01:40:13.671Z,98934.28
2022-10-27T01:42:51.066Z,98932.16
2022-10-27T01:45:24.169Z,98927.25
2022-10-27T01:47:52.951Z,98937.09
2022-10-27T01:50:32.188Z,98924.03
2022-10-27T01:53:09.472Z,98930.47
2022-10-27T01:56:04.014Z,98938.06
2022-10-27T01:58:44.107Z,98927.34
2022-10-27T02:01:52.594Z,98935.59
2022-10-27T02:04:50.320Z,98938.09
2022-10-27T02:07:16.938Z,98933.50
2022-10-27T02:09:47.912Z,98943.25
2022-10-27T02:12:36.788Z,98938.38
2022-10-27T02:15:08.998Z,98932.66
2022-10-27T02:17:40.091Z,98933.56
2022-10-27T02:20:14.255Z,98947.56
2022-10-27T02:22:45.383Z,98935.59
2022-10-27T02:25:14.454Z,98940.91
2022-10-27T02:27:47.501Z,98941.47
2022-10-27T02:30:14.745Z,98947.53
2022-10-27T02:32:41.999Z,98951.47
2022-10-27T02:35:11.610Z,98944.53
2022-10-27T02:37:43.249Z,98945.88
2022-10-27T02:40:10.533Z,98949.69
2022-10-27T02:42:37.269Z,98948.41
2022-10-27T02:45:04.735Z,98944.28
2022-10-27T02:47:31.820Z,98949.69
2022-10-27T02:49:58.449Z,98950.84
2022-10-27T02:52:25.231Z,98947.34
2022-10-27T02:54:51.806Z,98944.69
2022-10-27T02:57:18.989Z,98950.31
2022-10-27T02:59:49.454Z,98953.94
2022-10-27T03:02:19.986Z,98946.69
2022-10-27T03:04:46.802Z,98953.66
2022-10-27T03:07:13.290Z,98955.66
2022-10-27T03:09:39.887Z,98952.69
2022-10-27T03:12:06.892Z,98958.31
2022-10-27T03:14:33.507Z,98960.97
2022-10-27T03:17:00.306Z,98957.47
2022-10-27T03:19:26.927Z,98965.94
2022-10-27T03:21:53.550Z,98963.09
2022-10-27T03:24:20.449Z,98969.38
2022-10-27T03:26:47.246Z,98980.03
2022-10-27T03:29:13.872Z,98982.09
2022-10-27T03:31:40.469Z,98986.09
2022-10-27T03:34:07.195Z,98988.91
2022-10-27T03:36:33.981Z,98995.41
2022-10-27T03:39:00.860Z,98986.66
2022-10-27T03:41:27.592Z,98991.84
2022-10-27T03:43:54.271Z,98997.50
2022-10-27T03:46:20.847Z,98995.84
2022-10-27T03:48:47.479Z,98999.16
2022-10-27T03:51:13.941Z,98998.22
2022-10-27T03:53:40.782Z,98992.03
2022-10-27T03:56:07.666Z,98996.59
2022-10-27T03:58:34.314Z,98995.56
2022-10-27T04:01:05.355Z,98994.56
2022-10-27T04:03:32.949Z,98989.03
2022-10-27T04:05:59.818Z,98992.09
2022-10-27T04:08:26.921Z,98991.78
2022-10-27T04:10:53.745Z,99000.50
2022-10-27T04:13:20.563Z,99002.53
2022-10-27T04:15:47.219Z,98993.88
2022-10-27T04:18:13.927Z,99000.13
2022-10-27T04:20:40.868Z,98999.41
2022-10-27T04:23:07.504Z,98989.41
2022-10-27T04:25:34.201Z,98989.97
2022-10-27T04:28:05.316Z,99006.72
2022-10-27T04:30:32.629Z,99007.72
2022-10-27T04:32:59.735Z,99009.50
2022-10-27T04:35:26.616Z,99013.47
2022-10-27T04:37:56.160Z,99010.13
2022-10-27T04:40:23.605Z,99013.88
2022-10-27T04:42:50.293Z,99012.78
2022-10-27T04:45:17.173Z,99011.94
2022-10-27T04:47:45.169Z,99015.69
2022-10-27T04:50:13.869Z,99019.06
2022-10-27T04:52:44.313Z,99018.31
2022-10-27T04:55:13.919Z,99016.41
2022-10-27T04:57:40.782Z,99020.09
2022-10-27T05:00:08.171Z,99015.28
2022-10-27T05:02:37.901Z,99024.44
2022-10-27T05:05:06.303Z,99014.06
2022-10-27T05:07:33.098Z,99020.00
2022-10-27T05:10:00.001Z,99021.75
2022-10-27T05:12:27.239Z,99021.25
2022-10-27T05:14:53.897Z,99031.72
2022-10-27T05:19:48.668Z,99027.78
2022-10-27T05:22:15.577Z,99031.47
2022-10-27T05:24:42.264Z,99027.25
2022-10-27T05:27:08.890Z,99036.56
2022-10-27T05:29:35.567Z,99032.31
2022-10-27T05:32:02.312Z,99028.84
2022-10-27T05:34:31.508Z,99030.63
2022-10-27T05:36:58.221Z,99038.44
2022-10-27T05:39:24.978Z,99040.56
2022-10-27T05:41:51.797Z,99041.28
2022-10-27T05:44:18.521Z,99045.06
2022-10-27T05:46:46.072Z,99046.03
2022-10-27T05:49:12.876Z,99047.84
2022-10-27T05:51:39.640Z,99052.81
2022-10-27T05:54:06.503Z,99058.00
2022-10-27T05:56:33.170Z,99058.41
2022-10-27T05:58:59.909Z,99060.00
2022-10-27T06:01:26.724Z,99058.25
2022-10-27T06:03:53.557Z,99068.22
2022-10-27T06:06:20.345Z,99058.13
2022-10-27T06:08:47.133Z,99058.81
2022-10-27T06:11:13.905Z,99063.50
2022-10-27T06:13:40.616Z,99075.28
2022-10-27T06:16:10.726Z,99074.31
2022-10-27T06:18:39.954Z,99084.69
2022-10-27T06:21:15.629Z,99083.50
2022-10-27T06:23:43.172Z,99087.50
2022-10-27T06:26:11.248Z,99083.47
2022-10-27T06:28:38.021Z,99090.69
2022-10-27T06:31:30.232Z,99099.38
2022-10-27T06:33:57.085Z,99090.75
2022-10-27T06:36:26.413Z,99096.63
2022-10-27T06:38:53.189Z,99083.97
2022-10-27T06:41:20.017Z,99096.72
2022-10-27T06:43:46.853Z,99097.94
2022-10-27T06:46:13.689Z,99105.28
2022-10-27T06:48:41.866Z,99102.44
2022-10-27T06:51:08.968Z,99111.47
2022-10-27T06:53:35.723Z,99108.16
2022-10-27T06:56:06.831Z,99111.25
2022-10-27T06:58:39.309Z,99109.06
2022-10-27T07:01:07.052Z,99105.63
2022-10-27T07:03:35.395Z,99106.81
2022-10-27T07:06:02.314Z,99105.69
2022-10-27T07:08:30.832Z,99119.41
2022-10-27T07:10:58.877Z,99115.69
2022-10-27T07:13:25.715Z,99119.13
2022-10-27T07:15:52.451Z,99126.75
2022-10-27T07:18:19.263Z,99133.13
2022-10-27T07:20:48.536Z,99136.19
2022-10-27T07:23:15.513Z,99137.31
2022-10-27T07:25:42.505Z,99138.94
2022-10-27T07:28:09.373Z,99142.69
2022-10-27T07:30:39.240Z,99148.59
2022-10-27T07:33:06.188Z,99153.22
2022-10-27T07:35:33.815Z,99160.91
2022-10-27T07:38:00.602Z,99162.88
2022-10-27T07:40:30.354Z,99169.69
2022-10-27T07:43:05.387Z,99161.13
2022-10-27T07:45:41.270Z,99161.09
2022-10-27T07:48:12.974Z,99168.59
2022-10-27T07:50:40.817Z,99168.91
2022-10-27T07:53:07.930Z,99176.16
2022-10-27T07:55:37.102Z,99175.19
2022-10-27T07:58:14.375Z,99176.03
2022-10-27T08:00:46.909Z,99175.03
2022-10-27T08:03:26.410Z,99186.69
2022-10-27T08:05:53.555Z,99177.72
2022-10-27T08:08:21.127Z,99173.97
2022-10-27T08:10:51.235Z,99185.53
2022-10-27T08:13:18.409Z,99193.31
2022-10-27T08:15:45.382Z,99188.69
2022-10-27T08:18:13.331Z,99197.25
2022-10-27T08:20:43.087Z,99195.34
2022-10-27T08:23:18.634Z,99194.63
2022-10-27T08:25:45.517Z,99202.81
2022-10-27T08:28:14.035Z,99192.44
2022-10-27T08:30:48.345Z,99192.63
2022-10-27T08:33:19.211Z,99198.38
2022-10-27T08:35:47.371Z,99205.84
2022-10-27T08:38:16.815Z,99203.16
2022-10-27T08:41:08.477Z,99208.22
2022-10-27T08:43:38.219Z,99201.47
2022-10-27T08:46:46.356Z,99204.84
2022-10-27T08:49:30.718Z,99203.78
2022-10-27T08:52:04.678Z,99216.59
2022-10-27T08:54:33.698Z,99209.69
2022-10-27T08:57:03.655Z,99209.31
2022-10-27T08:59:32.317Z,99203.16
2022-10-27T09:02:15.804Z,99209.53
2022-10-27T09:05:11.516Z,99206.13
2022-10-27T09:07:49.839Z,99205.47
2022-10-27T09:10:44.470Z,99202.75
2022-10-27T09:13:42.895Z,99203.50
2022-10-27T09:16:18.633Z,99203.81
2022-10-27T09:18:56.468Z,99202.53
2022-10-27T09:21:25.699Z,99189.84
2022-10-27T09:23:54.713Z,99193.25
2022-10-27T09:26:29.028Z,99197.19
2022-10-27T09:28:56.106Z,99192.00
2022-10-27T09:31:40.605Z,99194.31
2022-10-27T09:34:18.721Z,99186.53
2022-10-27T09:36:45.742Z,99179.66
2022-10-27T09:39:14.232Z,99193.72
2022-10-27T09:41:41.588Z,99187.50
2022-10-27T09:44:21.549Z,99187.31
2022-10-27T09:46:54.419Z,99178.31
2022-10-27T09:49:32.674Z,99185.72
2022-10-27T09:52:03.049Z,99181.94
2022-10-27T09:54:29.849Z,99179.25
2022-10-27T09:57:04.650Z,99178.38
2022-10-27T09:59:36.872Z,99176.28
2022-10-27T10:02:06.595Z,99174.38
2022-10-27T10:04:36.900Z,99167.13
2022-10-27T10:07:06.446Z,99166.41
2022-10-27T10:09:39.607Z,99171.13
2022-10-27T10:12:23.047Z,99170.28
2022-10-27T10:14:50.824Z,99161.69
2022-10-27T10:17:22.875Z,99159.81
2022-10-27T10:19:50.570Z,99154.84
2022-10-27T10:22:24.956Z,99154.34
2022-10-27T10:24:52.764Z,99157.25
2022-10-27T10:27:29.182Z,99156.28
2022-10-27T10:29:58.977Z,99153.31
2022-10-27T10:32:37.766Z,99147.41
2022-10-27T10:35:42.987Z,99149.31
2022-10-27T10:38:24.796Z,99148.50
2022-10-27T10:41:01.953Z,99142.16
2022-10-27T10:43:29.445Z,99143.00
2022-10-27T10:45:57.717Z,99146.06
2022-10-27T10:48:29.938Z,99141.19
2022-10-27T10:50:58.273Z,99142.16
2022-10-27T10:53:39.093Z,99135.75
2022-10-27T10:56:34.164Z,99127.50
2022-10-27T10:59:09.997Z,99127.03
2022-10-27T11:01:43.118Z,99123.34
2022-10-27T11:04:18.244Z,99122.91
2022-10-27T11:06:57.383Z,99125.13
2022-10-27T11:09:29.294Z,99130.44
2022-10-27T11:11:57.340Z,99109.91
2022-10-27T11:14:28.505Z,99114.06
2022-10-27T11:17:04.144Z,99119.97
2022-10-27T11:19:39.148Z,99121.22
2022-10-27T11:22:15.469Z,99120.75
2022-10-27T11:24:50.184Z,99118.22
2022-10-27T11:27:36.183Z,99120.00
2022-10-27T11:30:20.784Z,99125.66
2022-10-27T11:33:27.543Z,99116.19
2022-10-27T11:36:13.280Z,99118.47
2022-10-27T11:38:57.015Z,99125.09
2022-10-27T11:41:46.539Z,99123.78
2022-10-27T11:44:19.634Z,99127.16
2022-10-27T11:47:38.633Z,99119.63
2022-10-27T11:50:18.381Z,99124.41
2022-10-27T11:52:57.497Z,99122.56
2022-10-27T11:55:34.405Z,99114.78
2022-10-27T11:58:24.789Z,99110.47
2022-10-27T12:01:00.580Z,99107.03
2022-10-27T12:03:59.948Z,99114.81
2022-10-27T12:06:38.901Z,99111.06
2022-10-27T12:09:36.478Z,99112.03
2022-10-27T12:12:10.923Z,99106.56
2022-10-27T12:15:12.132Z,99101.88
2022-10-27T12:17:46.466Z,99111.50
2022-10-27T12:20:19.121Z,99099.69
2022-10-27T12:23:05.890Z,99105.38
2022-10-27T12:25:46.994Z,99097.94
2022-10-27T12:28:16.001Z,99110.44
2022-10-27T12:30:48.052Z,99105.13
2022-10-27T12:33:33.156Z,99102.47
2022-10-27T12:36:27.008Z,99106.25
2022-10-27T12:39:07.371Z,99098.91
2022-10-27T12:42:00.630Z,99096.22
2022-10-27T12:44:41.070Z,99091.28
2022-10-27T12:47:33.200Z,99092.97
2022-10-27T12:50:37.616Z,99088.38
2022-10-27T12:53:12.023Z,99085.84
2022-10-27T12:56:04.598Z,99085.47
2022-10-27T12:58:31.566Z,99085.78
2022-10-27T13:01:06.779Z,99079.28
2022-10-27T13:03:55.448Z,99076.31
2022-10-27T13:06:43.376Z,99079.28
2022-10-27T13:09:32.152Z,99074.09
2022-10-27T13:12:04.984Z,99071.88
2022-10-27T13:14:56.905Z,99080.88
2022-10-27T13:17:35.291Z,99068.31
2022-10-27T13:20:15.824Z,99072.66
2022-10-27T13:23:04.262Z,99069.16
2022-10-27T13:25:38.119Z,99077.16
2022-10-27T13:28:21.651Z,99072.03
2022-10-27T13:30:57.314Z,99064.28
2022-10-27T13:33:38.592Z,99067.66
2022-10-27T13:36:20.177Z,99067.28
2022-10-27T13:38:47.959Z,99068.47
2022-10-27T13:41:52.618Z,99065.47
2022-10-27T13:44:31.662Z,99061.59
2022-10-27T13:47:04.711Z,99061.53
2022-10-27T13:49:40.676Z,99061.09
2022-10-27T13:52:16.734Z,99065.44
2022-10-27T13:55:09.031Z,99067.03
2022-10-27T13:58:13.399Z,99059.66
2022-10-27T14:00:54.926Z,99064.47
2022-10-27T14:06:08.880Z,99071.34
2022-10-27T14:08:49.310Z,99070.34
2022-10-27T14:11:19.785Z,99061.25
2022-10-27T14:14:08.520Z,99063.34
2022-10-27T14:16:43.272Z,99067.09
2022-10-27T14:19:20.577Z,99062.56
2022-10-27T14:21:51.522Z,99057.50
2022-10-27T14:24:26.468Z,99049.88
2022-10-27T14:27:06.698Z,99049.56
2022-10-27T14:29:38.685Z,99060.19
2022-10-27T14:32:27.575Z,99053.88
2022-10-27T14:34:54.300Z,99050.75
2022-10-27T14:37:36.293Z,99051.44
2022-10-27T14:40:04.529Z,99049.06
2022-10-27T14:42:33.398Z,99046.63
2022-10-27T14:45:05.846Z,99043.84
2022-10-27T14:47:34.608Z,99047.84
2022-10-27T14:50:12.208Z,99046.91
2022-10-27T14:52:45.895Z,99042.75
2022-10-27T14:55:27.265Z,99041.22
2022-10-27T14:57:54.399Z,99036.88
2022-10-27T15:00:32.779Z,99043.75
2022-10-27T15:03:02.379Z,99039.38
2022-10-27T15:05:36.271Z,99029.72
2022-10-27T15:08:09.438Z,99029.91
2022-10-27T15:10:38.282Z,99034.72
2022-10-27T15:13:07.932Z,99028.28
2022-10-27T15:15:42.527Z,99033.53
2022-10-27T15:18:22.922Z,99027.81
2022-10-27T15:20:51.427Z,99033.00
2022-10-27T15:23:19.272Z,99027.00
2022-10-27T15:25:48.757Z,99034.00
2022-10-27T15:28:18.761Z,99029.19
2022-10-27T15:30:45.626Z,99032.97
2022-10-27T15:33:27.640Z,99038.38
2022-10-27T15:36:11.111Z,99038.38
2022-10-27T15:38:38.739Z,99038.25
2022-10-27T15:41:17.317Z,99035.97
2022-10-27T15:44:04.151Z,99025.06
2022-10-27T15:46:35.818Z,99021.78
2022-10-27T15:49:02.794Z,99022.31
2022-10-27T15:51:44.938Z,99029.50
2022-10-27T15:54:39.532Z,99028.72
2022-10-27T15:57:32.917Z,99022.31
2022-10-27T16:00:22.536Z,99023.03
2022-10-27T16:02:54.213Z,99020.59
2022-10-27T16:05:30.428Z,99015.84
2022-10-27T16:08:20.957Z,99012.66
2022-10-27T16:10:49.064Z,99014.19
2022-10-27T16:13:19.337Z,99001.84
2022-10-27T16:15:49.746Z,99003.50
2022-10-27T16:18:22.023Z,98997.97
2022-10-27T16:20:48.809Z,99007.78
2022-10-27T16:23:16.143Z,99010.00
2022-10-27T16:25:44.984Z,98997.34
2022-10-27T16:28:38.254Z,99006.34
2022-10-27T16:31:05.002Z,99015.63
2022-10-27T16:33:32.364Z,99013.53
2022-10-27T16:35:59.122Z,99009.59
2022-10-27T16:38:25.862Z,99012.78
2022-10-27T16:40:56.294Z,99018.09
2022-10-27T16:43:27.610Z,99017.69
2022-10-27T16:45:54.315Z,99017.31
2022-10-27T16:48:21.259Z,99026.41
2022-10-27T16:50:48.067Z,99017.91
2022-10-27T16:53:20.097Z,99022.75
2022-10-27T16:56:01.386Z,99025.91
2022-10-27T16:58:28.554Z,99033.50
2022-10-27T17:00:55.354Z,99024.66
2022-10-27T17:03:22.708Z,99027.09
2022-10-27T17:05:49.398Z,99026.84
2022-10-27T17:08:16.241Z,99027.69
2022-10-27T17:10:43.725Z,99031.84
2022-10-27T17:13:10.462Z,99030.56
2022-10-27T17:15:37.401Z,99035.47
2022-10-27T17:18:04.415Z,99029.72
2022-10-27T17:20:31.223Z,99026.66
2022-10-27T17:23:05.101Z,99029.41
2022-10-27T17:25:33.047Z,99030.41
2022-10-27T17:27:59.730Z,99027.50
2022-10-27T17:30:27.598Z,99023.66
2022-10-27T17:32:54.353Z,99020.13
2022-10-27T17:35:21.231Z,99019.28
2022-10-27T17:37:48.791Z,99023.94
2022-10-27T17:40:18.174Z,99028.91
2022-10-27T17:42:44.963Z,99023.03
2022-10-27T17:45:11.723Z,99033.75
2022-10-27T17:47:38.549Z,99034.22
2022-10-27T17:50:08.980Z,99036.28
2022-10-27T17:52:37.111Z,99038.38
2022-10-27T17:55:05.224Z,99036.81
2022-10-27T17:57:32.474Z,99038.59
2022-10-27T18:00:00.428Z,99043.53
2022-10-27T18:02:27.824Z,99048.16
2022-10-27T18:04:55.432Z,99040.25
2022-10-27T18:07:22.817Z,99039.00
2022-10-27T18:09:49.892Z,99048.25
2022-10-27T18:12:16.602Z,99048.97
2022-10-27T18:14:43.481Z,99050.78
2022-10-27T18:17:11.943Z,99043.59
2022-10-27T18:19:39.943Z,99037.69
2022-10-27T18:22:09.984Z,99034.00
2022-10-27T18:24:37.439Z,99040.25
2022-10-27T18:27:04.194Z,99043.06
2022-10-27T18:29:32.403Z,99034.59
2022-10-27T18:31:59.155Z,99040.69
2022-10-27T18:34:25.960Z,99040.53
2022-10-27T18:36:52.623Z,99050.56
2022-10-27T18:39:19.768Z,99048.97
2022-10-27T18:41:49.199Z,99046.72
2022-10-27T18:44:16.147Z,99047.03
2022-10-27T18:46:42.851Z,99048.75
2022-10-27T18:49:16.262Z,99042.25
2022-10-27T18:51:51.906Z,99041.53
2022-10-27T18:54:18.684Z,99037.47
2022-10-27T18:56:45.380Z,99045.34
2022-10-27T18:59:13.286Z,99042.38
2022-10-27T19:01:42.939Z,99037.31
2022-10-27T19:04:10.109Z,99029.81
2022-10-27T19:06:38.086Z,99030.13
2022-10-27T19:09:05.715Z,99036.03
2022-10-27T19:11:35.109Z,99030.97
2022-10-27T19:14:03.008Z,99031.38
2022-10-27T19:16:32.598Z,99026.72
2022-10-27T19:19:00.099Z,99024.63
2022-10-27T19:21:28.111Z,99028.13
2022-10-27T19:23:57.330Z,99023.91
2022-10-27T19:26:26.884Z,99034.19
2022-10-27T19:28:55.618Z,99035.63
2022-10-27T19:31:25.349Z,99039.94
2022-10-27T19:33:52.458Z,99039.94
2022-10-27T19:36:29.071Z,99033.75
2022-10-27T19:38:57.794Z,99034.44
2022-10-27T19:41:28.287Z,99033.19
2022-10-27T19:43:58.603Z,99029.38
2022-10-27T19:46:27.458Z,99032.22
2022-10-27T19:48:56.201Z,99022.22
2022-10-27T19:51:26.098Z,99031.09
2022-10-27T19:53:56.490Z,99024.44
2022-10-27T19:56:25.667Z,99021.06
2022-10-27T19:58:58.030Z,99010.94
2022-10-27T20:01:29.619Z,99017.00
2022-10-27T20:03:59.672Z,99013.34
2022-10-27T20:06:26.309Z,99010.81
2022-10-27T20:08:56.213Z,99011.78
2022-10-27T20:11:25.988Z,99018.41
2022-10-27T20:13:55.287Z,99020.09
2022-10-27T20:16:27.812Z,99015.47
2022-10-27T20:18:55.073Z,99013.91
2022-10-27T20:21:21.873Z,99004.47
2022-10-27T20:23:48.614Z,99007.69
2022-10-27T20:26:31.329Z,99018.00
2022-10-27T20:28:58.946Z,99015.16
2022-10-27T20:31:26.010Z,99014.47
2022-10-27T20:33:52.771Z,99007.69
2022-10-27T20:36:19.665Z,99005.00
2022-10-27T20:38:46.847Z,99013.34
2022-10-27T20:41:18.752Z,99010.91
2022-10-27T20:43:45.883Z,99008.09
2022-10-27T20:46:13.198Z,99003.94
2022-10-27T20:48:40.788Z,99005.91
2022-10-27T20:51:11.800Z,99012.94
2022-10-27T20:53:39.672Z,99011.66
2022-10-27T20:56:07.856Z,99006.88
2022-10-27T20:58:34.518Z,99010.94
2022-10-27T21:01:24.174Z,99012.34
2022-10-27T21:03:53.062Z,99008.50
2022-10-27T21:06:20.155Z,99000.59
2022-10-27T21:08:47.012Z,99001.00
2022-10-27T21:11:13.753Z,99011.97
2022-10-27T21:13:40.287Z,99016.22
2022-10-27T21:16:07.160Z,99009.69
2022-10-27T21:18:33.808Z,99019.25
2022-10-27T21:21:10.284Z,99013.34
2022-10-27T21:23:41.247Z,99023.66
2022-10-27T21:26:09.949Z,99013.28
2022-10-27T21:28:37.395Z,99006.19
2022-10-27T21:31:05.732Z,99006.22
2022-10-27T21:33:32.924Z,99002.22
2022-10-27T21:35:59.897Z,99006.41
2022-10-27T21:38:26.534Z,99004.84
2022-10-27T21:40:58.212Z,99022.19
2022-10-27T21:43:25.068Z,99010.78
2022-10-27T21:45:56.991Z,99010.13
2022-10-27T21:48:25.534Z,99016.41
2022-10-27T21:50:52.687Z,99013.88
2022-10-27T21:53:19.894Z,99008.66
2022-10-27T21:56:03.382Z,99012.19
2022-10-27T21:58:31.645Z,99008.84
2022-10-27T22:01:20.449Z,99009.63
2022-10-27T22:03:48.510Z,99006.78
2022-10-27T22:06:16.989Z,99012.84
2022-10-27T22:08:44.325Z,99012.50
2022-10-27T22:11:14.889Z,99013.22
2022-10-27T22:13:41.811Z,99015.19
2022-10-27T22:16:13.923Z,99013.03
2022-10-27T22:18:41.991Z,99013.03
2022-10-27T22:21:10.957Z,99012.06
2022-10-27T22:23:37.839Z,99010.53
2022-10-27T22:26:08.758Z,99007.34
2022-10-27T22:28:36.648Z,99006.22
2022-10-27T22:31:08.372Z,99004.94
2022-10-27T22:33:35.314Z,99003.97
2022-10-27T22:36:07.010Z,99007.88
2022-10-27T22:38:34.588Z,99005.31
2022-10-27T22:41:05.981Z,99000.75
2022-10-27T22:43:34.471Z,99002.84
2022-10-27T22:46:01.849Z,99007.88
2022-10-27T22:48:31.443Z,99006.38
2022-10-27T22:50:59.773Z,99002.84
2022-10-27T22:53:29.728Z,98999.47
2022-10-27T22:55:56.459Z,98999.91
2022-10-27T22:58:23.508Z,99000.31
2022-10-27T23:00:50.166Z,98994.34
2022-10-27T23:03:16.833Z,98998.63
2022-10-27T23:05:44.454Z,98991.66
2022-10-27T23:08:11.152Z,98991.59
2022-10-27T23:10:37.811Z,98977.38
2022-10-27T23:13:04.456Z,98977.53
2022-10-27T23:15:31.349Z,98977.63
2022-10-27T23:17:58.079Z,98982.00
2022-10-27T23:20:24.681Z,98988.94
2022-10-27T23:22:51.617Z,98975.50
2022-10-27T23:25:19.128Z,98981.31
2022-10-27T23:27:45.779Z,98977.16
2022-10-27T23:30:12.704Z,98973.38
2022-10-27T23:32:39.284Z,98977.75
2022-10-27T23:35:06.562Z,98985.22
2022-10-27T23:37:33.107Z,98981.44
2022-10-27T23:39:59.744Z,98977.13
2022-10-27T23:42:26.305Z,98979.47
2022-10-27T23:44:52.937Z,98980.38
2022-10-27T23:47:19.520Z,98975.16
2022-10-27T23:49:46.268Z,98969.78
2022-10-27T23:52:12.899Z,98968.56
2022-10-27T23:54:43.067Z,98976.22
2022-10-27T23:57:12.042Z,98976.53
2022-10-27T23:59:38.748Z,98971.25
